KPHT

Henry County Airport

Paris, Tennessee, USA
METAR KPHT 200055Z AUTO 19008KT 10SM OVC036 04/M05 A3013 RMK A01
Observed Flight Rules
Jan-20 @ 00:55 UTC (22 minutes ago) Visual Flight Rules
Wind Visibility Clouds
190° at 8 knots 10 miles
  • Overcast at 3,600' AGL
Temperatures Readings
Current 4°C / 39°F
Dewpoint -5°C / 23°F
Humidity 52%
Altimeter 30.13" Hg
Pressure 1020 hPa
Elevation 177
METAR KPHT 200055Z AUTO 19008KT 10SM OVC036 04/M05 A3013 RMK A01
Observed Flight Rules
Jan-20 @ 00:55 UTC
(22 minutes ago)
VFR
Wind Visibility
190° at 8 knots 10 miles
Clouds
  • Overcast at 3,600' AGL
Temperature Dewpoint
4°C / 39°F -5°C / 23°F
Humidity Altimeter Pressure
52% 30.13" Hg 1020 hPa